sensor_id;sensor_type;location;lat;lon;timestamp;P1;durP1;ratioP1;P2;durP2;ratioP2
3779;SDS011;1905;52.482;9.802;2023-02-21T00:02:20;32.70;;;16.37;;
3779;SDS011;1905;52.482;9.802;2023-02-21T00:05:05;30.50;;;16.97;;
3779;SDS011;1905;52.482;9.802;2023-02-21T00:07:52;28.77;;;13.93;;
3779;SDS011;1905;52.482;9.802;2023-02-21T00:10:37;33.83;;;14.73;;
3779;SDS011;1905;52.482;9.802;2023-02-21T00:13:22;27.73;;;13.87;;
3779;SDS011;1905;52.482;9.802;2023-02-21T00:16:08;29.93;;;14.77;;
3779;SDS011;1905;52.482;9.802;2023-02-21T00:18:53;37.23;;;15.90;;
3779;SDS011;1905;52.482;9.802;2023-02-21T00:21:38;29.33;;;15.80;;
3779;SDS011;1905;52.482;9.802;2023-02-21T00:24:24;28.60;;;15.17;;
3779;SDS011;1905;52.482;9.802;2023-02-21T00:27:09;29.53;;;14.80;;
3779;SDS011;1905;52.482;9.802;2023-02-21T00:29:55;32.30;;;15.50;;
3779;SDS011;1905;52.482;9.802;2023-02-21T00:32:40;34.67;;;16.30;;
3779;SDS011;1905;52.482;9.802;2023-02-21T00:35:28;32.17;;;17.23;;
3779;SDS011;1905;52.482;9.802;2023-02-21T00:38:13;30.60;;;16.83;;
3779;SDS011;1905;52.482;9.802;2023-02-21T00:40:59;32.83;;;17.60;;
3779;SDS011;1905;52.482;9.802;2023-02-21T00:43:45;28.37;;;14.50;;
3779;SDS011;1905;52.482;9.802;2023-02-21T00:46:31;36.93;;;17.63;;
3779;SDS011;1905;52.482;9.802;2023-02-21T00:49:17;28.10;;;14.73;;
3779;SDS011;1905;52.482;9.802;2023-02-21T00:52:03;30.67;;;15.83;;
3779;SDS011;1905;52.482;9.802;2023-02-21T00:54:48;28.50;;;14.33;;
3779;SDS011;1905;52.482;9.802;2023-02-21T00:57:35;28.80;;;14.03;;
3779;SDS011;1905;52.482;9.802;2023-02-21T01:00:21;31.60;;;17.03;;
3779;SDS011;1905;52.482;9.802;2023-02-21T01:03:07;30.83;;;15.37;;
3779;SDS011;1905;52.482;9.802;2023-02-21T01:05:55;29.10;;;16.40;;
3779;SDS011;1905;52.482;9.802;2023-02-21T01:08:41;29.70;;;14.93;;
3779;SDS011;1905;52.482;9.802;2023-02-21T01:11:29;33.97;;;15.70;;
3779;SDS011;1905;52.482;9.802;2023-02-21T01:14:17;30.77;;;15.50;;
3779;SDS011;1905;52.482;9.802;2023-02-21T01:17:02;23.50;;;15.67;;
3779;SDS011;1905;52.482;9.802;2023-02-21T01:19:47;31.47;;;14.13;;
3779;SDS011;1905;52.482;9.802;2023-02-21T01:22:33;29.83;;;16.63;;
3779;SDS011;1905;52.482;9.802;2023-02-21T01:25:19;29.30;;;16.87;;
3779;SDS011;1905;52.482;9.802;2023-02-21T01:28:05;29.27;;;16.50;;
3779;SDS011;1905;52.482;9.802;2023-02-21T01:30:52;25.07;;;13.90;;
3779;SDS011;1905;52.482;9.802;2023-02-21T01:33:38;25.33;;;13.07;;
3779;SDS011;1905;52.482;9.802;2023-02-21T01:36:24;26.67;;;14.83;;
3779;SDS011;1905;52.482;9.802;2023-02-21T01:39:11;32.13;;;15.40;;
3779;SDS011;1905;52.482;9.802;2023-02-21T01:41:58;33.10;;;16.37;;
3779;SDS011;1905;52.482;9.802;2023-02-21T01:44:45;33.73;;;17.00;;
3779;SDS011;1905;52.482;9.802;2023-02-21T01:47:32;29.93;;;16.57;;
3779;SDS011;1905;52.482;9.802;2023-02-21T01:50:18;27.10;;;14.70;;
3779;SDS011;1905;52.482;9.802;2023-02-21T01:53:08;31.40;;;17.70;;
3779;SDS011;1905;52.482;9.802;2023-02-21T01:55:56;27.87;;;15.17;;
3779;SDS011;1905;52.482;9.802;2023-02-21T01:58:45;27.50;;;15.20;;
3779;SDS011;1905;52.482;9.802;2023-02-21T02:01:34;31.43;;;15.20;;
3779;SDS011;1905;52.482;9.802;2023-02-21T02:04:24;28.80;;;13.90;;
3779;SDS011;1905;52.482;9.802;2023-02-21T02:07:09;29.40;;;16.40;;
3779;SDS011;1905;52.482;9.802;2023-02-21T02:09:54;33.63;;;16.57;;
3779;SDS011;1905;52.482;9.802;2023-02-21T02:15:46;30.43;;;18.43;;
3779;SDS011;1905;52.482;9.802;2023-02-21T02:18:25;42.27;;;17.83;;
3779;SDS011;1905;52.482;9.802;2023-02-21T02:21:34;26.40;;;14.90;;
3779;SDS011;1905;52.482;9.802;2023-02-21T02:24:29;36.87;;;20.27;;
3779;SDS011;1905;52.482;9.802;2023-02-21T02:27:14;36.00;;;17.10;;
3779;SDS011;1905;52.482;9.802;2023-02-21T02:30:02;32.47;;;16.20;;
3779;SDS011;1905;52.482;9.802;2023-02-21T02:32:50;33.30;;;17.63;;
3779;SDS011;1905;52.482;9.802;2023-02-21T02:35:40;38.13;;;16.70;;
3779;SDS011;1905;52.482;9.802;2023-02-21T02:38:26;33.63;;;15.10;;
3779;SDS011;1905;52.482;9.802;2023-02-21T02:41:02;33.37;;;16.93;;
3779;SDS011;1905;52.482;9.802;2023-02-21T02:43:36;34.60;;;16.67;;
3779;SDS011;1905;52.482;9.802;2023-02-21T02:46:13;29.13;;;13.73;;
3779;SDS011;1905;52.482;9.802;2023-02-21T02:48:45;31.97;;;16.60;;
3779;SDS011;1905;52.482;9.802;2023-02-21T02:51:17;30.40;;;18.43;;
3779;SDS011;1905;52.482;9.802;2023-02-21T02:53:45;36.23;;;17.57;;
3779;SDS011;1905;52.482;9.802;2023-02-21T02:56:14;35.93;;;18.77;;
3779;SDS011;1905;52.482;9.802;2023-02-21T02:58:43;39.17;;;16.07;;
3779;SDS011;1905;52.482;9.802;2023-02-21T03:01:19;37.00;;;17.47;;
3779;SDS011;1905;52.482;9.802;2023-02-21T03:03:59;34.50;;;15.77;;
3779;SDS011;1905;52.482;9.802;2023-02-21T03:06:40;37.87;;;19.50;;
3779;SDS011;1905;52.482;9.802;2023-02-21T03:09:17;32.63;;;17.40;;
3779;SDS011;1905;52.482;9.802;2023-02-21T03:11:55;32.20;;;16.93;;
3779;SDS011;1905;52.482;9.802;2023-02-21T03:14:29;26.40;;;13.77;;
3779;SDS011;1905;52.482;9.802;2023-02-21T03:17:05;27.20;;;13.83;;
3779;SDS011;1905;52.482;9.802;2023-02-21T03:19:36;38.37;;;16.90;;
3779;SDS011;1905;52.482;9.802;2023-02-21T03:22:08;28.60;;;14.97;;
3779;SDS011;1905;52.482;9.802;2023-02-21T03:24:39;34.50;;;18.90;;
3779;SDS011;1905;52.482;9.802;2023-02-21T03:27:09;36.67;;;18.97;;
3779;SDS011;1905;52.482;9.802;2023-02-21T03:30:03;33.13;;;16.70;;
3779;SDS011;1905;52.482;9.802;2023-02-21T03:32:34;35.13;;;16.83;;
3779;SDS011;1905;52.482;9.802;2023-02-21T03:35:05;41.87;;;17.83;;
3779;SDS011;1905;52.482;9.802;2023-02-21T03:37:38;28.10;;;15.70;;
3779;SDS011;1905;52.482;9.802;2023-02-21T03:40:09;32.60;;;16.67;;
3779;SDS011;1905;52.482;9.802;2023-02-21T03:42:46;34.20;;;16.70;;
3779;SDS011;1905;52.482;9.802;2023-02-21T03:45:16;26.00;;;15.50;;
3779;SDS011;1905;52.482;9.802;2023-02-21T03:47:55;37.10;;;17.93;;
3779;SDS011;1905;52.482;9.802;2023-02-21T03:50:22;33.37;;;18.60;;
3779;SDS011;1905;52.482;9.802;2023-02-21T03:52:51;25.00;;;15.17;;
3779;SDS011;1905;52.482;9.802;2023-02-21T03:55:20;37.23;;;15.67;;
3779;SDS011;1905;52.482;9.802;2023-02-21T03:57:49;34.30;;;17.77;;
3779;SDS011;1905;52.482;9.802;2023-02-21T04:00:17;26.57;;;12.70;;
3779;SDS011;1905;52.482;9.802;2023-02-21T04:02:49;31.70;;;16.20;;
3779;SDS011;1905;52.482;9.802;2023-02-21T04:05:26;34.80;;;17.07;;
3779;SDS011;1905;52.482;9.802;2023-02-21T04:07:56;26.07;;;14.90;;
3779;SDS011;1905;52.482;9.802;2023-02-21T04:10:23;30.27;;;17.13;;
3779;SDS011;1905;52.482;9.802;2023-02-21T04:12:52;31.90;;;16.80;;
3779;SDS011;1905;52.482;9.802;2023-02-21T04:15:20;31.50;;;15.93;;
3779;SDS011;1905;52.482;9.802;2023-02-21T04:17:48;30.17;;;15.77;;
3779;SDS011;1905;52.482;9.802;2023-02-21T04:20:16;32.87;;;17.00;;
3779;SDS011;1905;52.482;9.802;2023-02-21T04:22:49;31.10;;;16.27;;
3779;SDS011;1905;52.482;9.802;2023-02-21T04:25:30;35.10;;;15.83;;
3779;SDS011;1905;52.482;9.802;2023-02-21T04:28:02;35.03;;;18.77;;
3779;SDS011;1905;52.482;9.802;2023-02-21T04:30:30;30.90;;;16.30;;
3779;SDS011;1905;52.482;9.802;2023-02-21T04:32:58;33.17;;;16.97;;
3779;SDS011;1905;52.482;9.802;2023-02-21T04:35:26;31.43;;;18.00;;
3779;SDS011;1905;52.482;9.802;2023-02-21T04:37:56;36.30;;;18.17;;
3779;SDS011;1905;52.482;9.802;2023-02-21T04:40:24;34.00;;;17.17;;
3779;SDS011;1905;52.482;9.802;2023-02-21T04:42:52;30.83;;;16.60;;
3779;SDS011;1905;52.482;9.802;2023-02-21T04:45:20;33.93;;;16.83;;
3779;SDS011;1905;52.482;9.802;2023-02-21T04:47:48;33.53;;;17.50;;
3779;SDS011;1905;52.482;9.802;2023-02-21T04:50:15;27.60;;;15.87;;
3779;SDS011;1905;52.482;9.802;2023-02-21T04:52:43;33.63;;;18.33;;
3779;SDS011;1905;52.482;9.802;2023-02-21T04:55:10;31.70;;;16.23;;
3779;SDS011;1905;52.482;9.802;2023-02-21T04:57:38;34.60;;;17.87;;
3779;SDS011;1905;52.482;9.802;2023-02-21T05:00:08;36.43;;;17.00;;
3779;SDS011;1905;52.482;9.802;2023-02-21T05:02:40;31.23;;;16.07;;
3779;SDS011;1905;52.482;9.802;2023-02-21T05:05:09;31.97;;;15.50;;
3779;SDS011;1905;52.482;9.802;2023-02-21T05:07:37;30.07;;;15.43;;
3779;SDS011;1905;52.482;9.802;2023-02-21T05:10:05;30.53;;;17.10;;
3779;SDS011;1905;52.482;9.802;2023-02-21T05:12:34;27.33;;;16.57;;
3779;SDS011;1905;52.482;9.802;2023-02-21T05:15:03;29.97;;;14.60;;
3779;SDS011;1905;52.482;9.802;2023-02-21T05:17:32;25.80;;;16.23;;
3779;SDS011;1905;52.482;9.802;2023-02-21T05:19:59;27.40;;;15.80;;
3779;SDS011;1905;52.482;9.802;2023-02-21T05:22:27;32.50;;;15.30;;
3779;SDS011;1905;52.482;9.802;2023-02-21T05:24:55;27.43;;;15.70;;
3779;SDS011;1905;52.482;9.802;2023-02-21T05:27:22;29.57;;;15.27;;
3779;SDS011;1905;52.482;9.802;2023-02-21T05:29:51;28.57;;;14.80;;
3779;SDS011;1905;52.482;9.802;2023-02-21T05:32:20;24.70;;;13.07;;
3779;SDS011;1905;52.482;9.802;2023-02-21T05:34:49;22.63;;;13.07;;
3779;SDS011;1905;52.482;9.802;2023-02-21T05:37:17;27.93;;;12.70;;
3779;SDS011;1905;52.482;9.802;2023-02-21T05:39:46;26.77;;;12.50;;
3779;SDS011;1905;52.482;9.802;2023-02-21T05:42:14;25.80;;;14.80;;
3779;SDS011;1905;52.482;9.802;2023-02-21T05:44:42;31.77;;;15.57;;
3779;SDS011;1905;52.482;9.802;2023-02-21T05:47:10;27.90;;;13.90;;
3779;SDS011;1905;52.482;9.802;2023-02-21T05:49:38;26.33;;;14.80;;
3779;SDS011;1905;52.482;9.802;2023-02-21T05:52:07;35.10;;;15.80;;
3779;SDS011;1905;52.482;9.802;2023-02-21T05:54:37;24.70;;;14.00;;
3779;SDS011;1905;52.482;9.802;2023-02-21T05:57:05;24.50;;;13.83;;
3779;SDS011;1905;52.482;9.802;2023-02-21T05:59:32;22.40;;;13.30;;
3779;SDS011;1905;52.482;9.802;2023-02-21T06:02:00;24.93;;;13.40;;
3779;SDS011;1905;52.482;9.802;2023-02-21T06:04:28;28.37;;;13.47;;
3779;SDS011;1905;52.482;9.802;2023-02-21T06:06:55;27.60;;;15.33;;
3779;SDS011;1905;52.482;9.802;2023-02-21T06:09:24;22.97;;;12.50;;
3779;SDS011;1905;52.482;9.802;2023-02-21T06:11:54;37.50;;;16.17;;
3779;SDS011;1905;52.482;9.802;2023-02-21T06:14:23;28.83;;;15.80;;
3779;SDS011;1905;52.482;9.802;2023-02-21T06:16:52;23.87;;;14.10;;
3779;SDS011;1905;52.482;9.802;2023-02-21T06:19:19;29.20;;;14.17;;
3779;SDS011;1905;52.482;9.802;2023-02-21T06:21:47;30.47;;;16.10;;
3779;SDS011;1905;52.482;9.802;2023-02-21T06:24:15;28.87;;;16.63;;
3779;SDS011;1905;52.482;9.802;2023-02-21T06:26:44;32.23;;;16.33;;
3779;SDS011;1905;52.482;9.802;2023-02-21T06:29:12;31.73;;;16.37;;
3779;SDS011;1905;52.482;9.802;2023-02-21T06:31:39;34.90;;;18.30;;
3779;SDS011;1905;52.482;9.802;2023-02-21T06:34:07;35.80;;;16.93;;
3779;SDS011;1905;52.482;9.802;2023-02-21T06:36:35;26.27;;;15.37;;
3779;SDS011;1905;52.482;9.802;2023-02-21T06:39:04;29.83;;;15.47;;
3779;SDS011;1905;52.482;9.802;2023-02-21T06:41:33;35.67;;;17.23;;
3779;SDS011;1905;52.482;9.802;2023-02-21T06:44:02;24.27;;;14.57;;
3779;SDS011;1905;52.482;9.802;2023-02-21T06:46:30;26.40;;;13.60;;
3779;SDS011;1905;52.482;9.802;2023-02-21T06:48:57;32.50;;;15.77;;
3779;SDS011;1905;52.482;9.802;2023-02-21T06:51:25;31.30;;;15.60;;
3779;SDS011;1905;52.482;9.802;2023-02-21T06:53:55;31.17;;;17.27;;
3779;SDS011;1905;52.482;9.802;2023-02-21T06:56:24;31.20;;;14.60;;
3779;SDS011;1905;52.482;9.802;2023-02-21T06:58:52;35.40;;;16.93;;
3779;SDS011;1905;52.482;9.802;2023-02-21T07:01:21;33.93;;;15.73;;
3779;SDS011;1905;52.482;9.802;2023-02-21T07:03:50;30.77;;;16.10;;
3779;SDS011;1905;52.482;9.802;2023-02-21T07:06:17;31.90;;;15.83;;
3779;SDS011;1905;52.482;9.802;2023-02-21T07:08:45;31.83;;;15.23;;
3779;SDS011;1905;52.482;9.802;2023-02-21T07:11:12;26.40;;;15.83;;
3779;SDS011;1905;52.482;9.802;2023-02-21T07:13:41;35.03;;;17.53;;
3779;SDS011;1905;52.482;9.802;2023-02-21T07:16:12;36.57;;;16.30;;
3779;SDS011;1905;52.482;9.802;2023-02-21T07:18:47;39.40;;;17.10;;
3779;SDS011;1905;52.482;9.802;2023-02-21T07:21:15;35.77;;;18.27;;
3779;SDS011;1905;52.482;9.802;2023-02-21T07:23:44;35.93;;;17.17;;
3779;SDS011;1905;52.482;9.802;2023-02-21T07:26:12;35.73;;;18.70;;
3779;SDS011;1905;52.482;9.802;2023-02-21T07:28:41;29.03;;;14.60;;
3779;SDS011;1905;52.482;9.802;2023-02-21T07:31:09;35.50;;;15.70;;
3779;SDS011;1905;52.482;9.802;2023-02-21T07:33:37;32.10;;;17.40;;
3779;SDS011;1905;52.482;9.802;2023-02-21T07:36:06;32.90;;;15.83;;
3779;SDS011;1905;52.482;9.802;2023-02-21T07:38:34;34.63;;;17.73;;
3779;SDS011;1905;52.482;9.802;2023-02-21T07:41:02;30.90;;;18.30;;
3779;SDS011;1905;52.482;9.802;2023-02-21T07:43:30;34.30;;;18.40;;
3779;SDS011;1905;52.482;9.802;2023-02-21T07:45:58;38.27;;;17.60;;
3779;SDS011;1905;52.482;9.802;2023-02-21T07:48:26;32.20;;;16.13;;
3779;SDS011;1905;52.482;9.802;2023-02-21T07:50:54;26.30;;;14.40;;
3779;SDS011;1905;52.482;9.802;2023-02-21T07:53:23;33.47;;;15.80;;
3779;SDS011;1905;52.482;9.802;2023-02-21T07:55:50;33.60;;;18.43;;
3779;SDS011;1905;52.482;9.802;2023-02-21T07:58:18;27.63;;;16.70;;
3779;SDS011;1905;52.482;9.802;2023-02-21T08:00:46;26.73;;;14.60;;
3779;SDS011;1905;52.482;9.802;2023-02-21T08:03:14;37.20;;;16.80;;
3779;SDS011;1905;52.482;9.802;2023-02-21T08:05:42;30.73;;;15.70;;
3779;SDS011;1905;52.482;9.802;2023-02-21T08:08:11;30.40;;;16.30;;
3779;SDS011;1905;52.482;9.802;2023-02-21T08:10:40;29.57;;;16.07;;
3779;SDS011;1905;52.482;9.802;2023-02-21T08:13:10;32.43;;;16.53;;
3779;SDS011;1905;52.482;9.802;2023-02-21T08:15:38;32.07;;;15.53;;
3779;SDS011;1905;52.482;9.802;2023-02-21T08:18:05;38.67;;;17.47;;
3779;SDS011;1905;52.482;9.802;2023-02-21T08:20:33;32.53;;;16.10;;
3779;SDS011;1905;52.482;9.802;2023-02-21T08:23:01;32.83;;;16.37;;
3779;SDS011;1905;52.482;9.802;2023-02-21T08:25:28;36.47;;;18.07;;
3779;SDS011;1905;52.482;9.802;2023-02-21T08:27:57;27.43;;;15.17;;
3779;SDS011;1905;52.482;9.802;2023-02-21T08:30:25;33.20;;;16.10;;
3779;SDS011;1905;52.482;9.802;2023-02-21T08:32:52;32.60;;;16.53;;
3779;SDS011;1905;52.482;9.802;2023-02-21T08:35:20;30.30;;;15.90;;
3779;SDS011;1905;52.482;9.802;2023-02-21T08:37:48;29.53;;;15.80;;
3779;SDS011;1905;52.482;9.802;2023-02-21T08:40:17;30.30;;;17.83;;
3779;SDS011;1905;52.482;9.802;2023-02-21T08:42:47;30.40;;;16.93;;
3779;SDS011;1905;52.482;9.802;2023-02-21T08:45:17;28.40;;;15.17;;
3779;SDS011;1905;52.482;9.802;2023-02-21T08:47:45;32.60;;;16.10;;
3779;SDS011;1905;52.482;9.802;2023-02-21T08:50:14;29.13;;;15.80;;
3779;SDS011;1905;52.482;9.802;2023-02-21T08:52:42;37.00;;;18.23;;
3779;SDS011;1905;52.482;9.802;2023-02-21T08:55:12;33.83;;;16.47;;
3779;SDS011;1905;52.482;9.802;2023-02-21T08:57:39;32.00;;;15.83;;
3779;SDS011;1905;52.482;9.802;2023-02-21T09:00:07;31.30;;;16.10;;
3779;SDS011;1905;52.482;9.802;2023-02-21T09:02:38;30.93;;;16.60;;
3779;SDS011;1905;52.482;9.802;2023-02-21T09:05:07;25.13;;;13.67;;
3779;SDS011;1905;52.482;9.802;2023-02-21T09:07:35;31.60;;;15.40;;
3779;SDS011;1905;52.482;9.802;2023-02-21T09:10:03;34.00;;;17.23;;
3779;SDS011;1905;52.482;9.802;2023-02-21T09:12:32;26.43;;;15.23;;
3779;SDS011;1905;52.482;9.802;2023-02-21T09:15:00;33.50;;;15.80;;
3779;SDS011;1905;52.482;9.802;2023-02-21T09:17:28;33.63;;;15.57;;
3779;SDS011;1905;52.482;9.802;2023-02-21T09:20:00;32.73;;;17.80;;
3779;SDS011;1905;52.482;9.802;2023-02-21T09:22:30;33.07;;;14.27;;
3779;SDS011;1905;52.482;9.802;2023-02-21T09:24:58;31.20;;;16.17;;
3779;SDS011;1905;52.482;9.802;2023-02-21T09:27:26;29.83;;;15.67;;
3779;SDS011;1905;52.482;9.802;2023-02-21T09:30:03;35.13;;;17.80;;
3779;SDS011;1905;52.482;9.802;2023-02-21T09:32:32;34.93;;;16.20;;
3779;SDS011;1905;52.482;9.802;2023-02-21T09:35:03;29.40;;;16.00;;
3779;SDS011;1905;52.482;9.802;2023-02-21T09:37:31;35.30;;;15.37;;
3779;SDS011;1905;52.482;9.802;2023-02-21T09:39:59;29.00;;;16.00;;
3779;SDS011;1905;52.482;9.802;2023-02-21T09:42:27;28.00;;;15.50;;
3779;SDS011;1905;52.482;9.802;2023-02-21T09:44:57;28.33;;;15.47;;
3779;SDS011;1905;52.482;9.802;2023-02-21T09:47:26;29.17;;;15.40;;
3779;SDS011;1905;52.482;9.802;2023-02-21T09:49:58;34.23;;;15.33;;
3779;SDS011;1905;52.482;9.802;2023-02-21T09:52:33;27.80;;;16.47;;
3779;SDS011;1905;52.482;9.802;2023-02-21T09:55:04;34.07;;;16.17;;
3779;SDS011;1905;52.482;9.802;2023-02-21T09:57:37;30.47;;;15.23;;
3779;SDS011;1905;52.482;9.802;2023-02-21T10:00:09;31.13;;;15.73;;
3779;SDS011;1905;52.482;9.802;2023-02-21T10:02:47;38.33;;;16.70;;
3779;SDS011;1905;52.482;9.802;2023-02-21T10:05:26;42.63;;;17.60;;
3779;SDS011;1905;52.482;9.802;2023-02-21T10:08:06;29.80;;;15.37;;
3779;SDS011;1905;52.482;9.802;2023-02-21T10:10:42;33.53;;;16.30;;
3779;SDS011;1905;52.482;9.802;2023-02-21T10:13:16;32.27;;;16.43;;
3779;SDS011;1905;52.482;9.802;2023-02-21T10:15:50;27.43;;;16.10;;
3779;SDS011;1905;52.482;9.802;2023-02-21T10:18:24;28.03;;;14.10;;
3779;SDS011;1905;52.482;9.802;2023-02-21T10:21:00;33.30;;;15.80;;
3779;SDS011;1905;52.482;9.802;2023-02-21T10:23:33;29.53;;;16.00;;
3779;SDS011;1905;52.482;9.802;2023-02-21T10:26:05;27.50;;;15.20;;
3779;SDS011;1905;52.482;9.802;2023-02-21T10:28:35;35.37;;;15.80;;
3779;SDS011;1905;52.482;9.802;2023-02-21T10:31:06;31.00;;;15.93;;
3779;SDS011;1905;52.482;9.802;2023-02-21T10:33:36;29.30;;;14.50;;
3779;SDS011;1905;52.482;9.802;2023-02-21T10:36:09;26.97;;;14.47;;
3779;SDS011;1905;52.482;9.802;2023-02-21T10:38:40;26.00;;;13.50;;
3779;SDS011;1905;52.482;9.802;2023-02-21T10:41:12;27.87;;;15.03;;
3779;SDS011;1905;52.482;9.802;2023-02-21T10:43:41;30.30;;;14.03;;
3779;SDS011;1905;52.482;9.802;2023-02-21T10:46:14;25.07;;;13.93;;
3779;SDS011;1905;52.482;9.802;2023-02-21T10:48:49;26.83;;;12.73;;
3779;SDS011;1905;52.482;9.802;2023-02-21T10:51:27;25.93;;;14.27;;
3779;SDS011;1905;52.482;9.802;2023-02-21T10:54:15;25.40;;;14.10;;
3779;SDS011;1905;52.482;9.802;2023-02-21T10:56:44;25.57;;;12.97;;
3779;SDS011;1905;52.482;9.802;2023-02-21T10:59:17;20.37;;;12.00;;
3779;SDS011;1905;52.482;9.802;2023-02-21T11:01:48;19.67;;;10.47;;
3779;SDS011;1905;52.482;9.802;2023-02-21T11:04:23;25.33;;;11.10;;
3779;SDS011;1905;52.482;9.802;2023-02-21T11:06:54;21.47;;;11.60;;
3779;SDS011;1905;52.482;9.802;2023-02-21T11:09:35;25.37;;;14.20;;
3779;SDS011;1905;52.482;9.802;2023-02-21T11:12:15;19.60;;;10.97;;
3779;SDS011;1905;52.482;9.802;2023-02-21T11:15:02;22.97;;;13.57;;
3779;SDS011;1905;52.482;9.802;2023-02-21T11:17:41;26.13;;;11.50;;
3779;SDS011;1905;52.482;9.802;2023-02-21T11:20:15;20.53;;;11.27;;
3779;SDS011;1905;52.482;9.802;2023-02-21T11:22:44;18.80;;;10.50;;
3779;SDS011;1905;52.482;9.802;2023-02-21T11:25:17;17.53;;;10.80;;
3779;SDS011;1905;52.482;9.802;2023-02-21T11:28:02;18.53;;;9.87;;
3779;SDS011;1905;52.482;9.802;2023-02-21T11:30:32;19.10;;;10.67;;
3779;SDS011;1905;52.482;9.802;2023-02-21T11:33:02;18.60;;;11.20;;
3779;SDS011;1905;52.482;9.802;2023-02-21T11:35:31;20.77;;;10.80;;
3779;SDS011;1905;52.482;9.802;2023-02-21T11:38:02;17.03;;;10.30;;
3779;SDS011;1905;52.482;9.802;2023-02-21T11:40:39;18.80;;;10.23;;
3779;SDS011;1905;52.482;9.802;2023-02-21T11:43:10;17.67;;;11.10;;
3779;SDS011;1905;52.482;9.802;2023-02-21T11:45:40;18.00;;;11.90;;
3779;SDS011;1905;52.482;9.802;2023-02-21T11:48:12;20.50;;;9.60;;
3779;SDS011;1905;52.482;9.802;2023-02-21T11:50:43;20.17;;;11.70;;
3779;SDS011;1905;52.482;9.802;2023-02-21T11:53:17;21.60;;;10.40;;
3779;SDS011;1905;52.482;9.802;2023-02-21T11:55:54;19.67;;;11.90;;
3779;SDS011;1905;52.482;9.802;2023-02-21T11:58:31;21.77;;;12.77;;
3779;SDS011;1905;52.482;9.802;2023-02-21T12:01:08;19.10;;;10.33;;
3779;SDS011;1905;52.482;9.802;2023-02-21T12:03:50;17.50;;;9.60;;
3779;SDS011;1905;52.482;9.802;2023-02-21T12:06:37;17.13;;;10.60;;
3779;SDS011;1905;52.482;9.802;2023-02-21T12:09:16;16.23;;;9.40;;
3779;SDS011;1905;52.482;9.802;2023-02-21T12:11:54;20.43;;;10.40;;
3779;SDS011;1905;52.482;9.802;2023-02-21T12:14:33;18.00;;;10.17;;
3779;SDS011;1905;52.482;9.802;2023-02-21T12:17:24;20.70;;;11.37;;
3779;SDS011;1905;52.482;9.802;2023-02-21T12:20:09;19.50;;;10.90;;
3779;SDS011;1905;52.482;9.802;2023-02-21T12:22:52;25.87;;;11.40;;
3779;SDS011;1905;52.482;9.802;2023-02-21T12:25:29;21.70;;;9.70;;
3779;SDS011;1905;52.482;9.802;2023-02-21T12:28:08;17.30;;;9.83;;
3779;SDS011;1905;52.482;9.802;2023-02-21T12:30:49;18.27;;;9.70;;
3779;SDS011;1905;52.482;9.802;2023-02-21T12:33:31;18.93;;;12.20;;
3779;SDS011;1905;52.482;9.802;2023-02-21T12:36:09;17.93;;;9.73;;
3779;SDS011;1905;52.482;9.802;2023-02-21T12:38:49;18.20;;;10.93;;
3779;SDS011;1905;52.482;9.802;2023-02-21T12:41:25;17.77;;;10.03;;
3779;SDS011;1905;52.482;9.802;2023-02-21T12:44:12;16.80;;;9.60;;
3779;SDS011;1905;52.482;9.802;2023-02-21T12:46:42;19.47;;;9.87;;
3779;SDS011;1905;52.482;9.802;2023-02-21T12:49:18;18.77;;;10.20;;
3779;SDS011;1905;52.482;9.802;2023-02-21T12:51:50;18.83;;;9.60;;
3779;SDS011;1905;52.482;9.802;2023-02-21T12:54:25;18.67;;;10.00;;
3779;SDS011;1905;52.482;9.802;2023-02-21T12:57:02;18.27;;;9.57;;
3779;SDS011;1905;52.482;9.802;2023-02-21T12:59:37;19.20;;;10.60;;
3779;SDS011;1905;52.482;9.802;2023-02-21T13:02:14;17.40;;;9.90;;
3779;SDS011;1905;52.482;9.802;2023-02-21T13:04:51;18.07;;;10.03;;
3779;SDS011;1905;52.482;9.802;2023-02-21T13:07:22;19.10;;;9.67;;
3779;SDS011;1905;52.482;9.802;2023-02-21T13:09:54;19.17;;;9.53;;
3779;SDS011;1905;52.482;9.802;2023-02-21T13:12:27;16.23;;;10.00;;
3779;SDS011;1905;52.482;9.802;2023-02-21T13:15:02;15.63;;;9.50;;
3779;SDS011;1905;52.482;9.802;2023-02-21T13:17:36;16.43;;;10.10;;
3779;SDS011;1905;52.482;9.802;2023-02-21T13:20:06;15.00;;;8.47;;
3779;SDS011;1905;52.482;9.802;2023-02-21T13:26:04;12.37;;;9.23;;
3779;SDS011;1905;52.482;9.802;2023-02-21T13:28:43;13.37;;;9.90;;
3779;SDS011;1905;52.482;9.802;2023-02-21T13:31:18;16.03;;;10.10;;
3779;SDS011;1905;52.482;9.802;2023-02-21T13:33:48;16.17;;;10.13;;
3779;SDS011;1905;52.482;9.802;2023-02-21T13:36:20;15.47;;;9.37;;
3779;SDS011;1905;52.482;9.802;2023-02-21T13:39:02;15.23;;;10.53;;
3779;SDS011;1905;52.482;9.802;2023-02-21T13:41:36;17.37;;;8.73;;
3779;SDS011;1905;52.482;9.802;2023-02-21T13:44:07;18.40;;;9.43;;
3779;SDS011;1905;52.482;9.802;2023-02-21T13:47:01;20.80;;;11.40;;
3779;SDS011;1905;52.482;9.802;2023-02-21T13:49:42;19.47;;;10.50;;
3779;SDS011;1905;52.482;9.802;2023-02-21T13:52:15;18.60;;;9.97;;
3779;SDS011;1905;52.482;9.802;2023-02-21T13:55:18;17.13;;;8.53;;
3779;SDS011;1905;52.482;9.802;2023-02-21T14:01:13;21.57;;;9.63;;
3779;SDS011;1905;52.482;9.802;2023-02-21T14:03:54;17.00;;;9.20;;
3779;SDS011;1905;52.482;9.802;2023-02-21T14:06:33;15.80;;;8.33;;
3779;SDS011;1905;52.482;9.802;2023-02-21T14:09:08;18.30;;;9.50;;
3779;SDS011;1905;52.482;9.802;2023-02-21T14:11:42;15.03;;;9.00;;
3779;SDS011;1905;52.482;9.802;2023-02-21T14:14:23;19.70;;;10.27;;
3779;SDS011;1905;52.482;9.802;2023-02-21T14:16:57;18.30;;;10.47;;
3779;SDS011;1905;52.482;9.802;2023-02-21T14:19:33;16.70;;;8.90;;
3779;SDS011;1905;52.482;9.802;2023-02-21T14:22:08;18.47;;;10.70;;
3779;SDS011;1905;52.482;9.802;2023-02-21T14:24:40;15.77;;;8.80;;
3779;SDS011;1905;52.482;9.802;2023-02-21T14:32:57;14.80;;;8.53;;
3779;SDS011;1905;52.482;9.802;2023-02-21T14:35:36;14.97;;;10.00;;
3779;SDS011;1905;52.482;9.802;2023-02-21T14:38:14;14.67;;;9.10;;
3779;SDS011;1905;52.482;9.802;2023-02-21T14:40:45;15.03;;;9.03;;
3779;SDS011;1905;52.482;9.802;2023-02-21T14:43:29;18.87;;;9.57;;
3779;SDS011;1905;52.482;9.802;2023-02-21T14:46:15;16.60;;;10.53;;
3779;SDS011;1905;52.482;9.802;2023-02-21T14:49:17;16.83;;;10.27;;
3779;SDS011;1905;52.482;9.802;2023-02-21T14:52:11;14.40;;;8.90;;
3779;SDS011;1905;52.482;9.802;2023-02-21T14:55:00;17.27;;;8.67;;
3779;SDS011;1905;52.482;9.802;2023-02-21T15:00:52;21.70;;;10.50;;
3779;SDS011;1905;52.482;9.802;2023-02-21T15:03:30;18.20;;;11.20;;
3779;SDS011;1905;52.482;9.802;2023-02-21T15:06:03;18.50;;;10.80;;
3779;SDS011;1905;52.482;9.802;2023-02-21T15:08:41;17.30;;;10.00;;
3779;SDS011;1905;52.482;9.802;2023-02-21T15:11:16;19.27;;;11.83;;
3779;SDS011;1905;52.482;9.802;2023-02-21T15:14:10;17.83;;;10.60;;
3779;SDS011;1905;52.482;9.802;2023-02-21T15:16:51;22.43;;;12.43;;
3779;SDS011;1905;52.482;9.802;2023-02-21T15:19:23;19.90;;;10.87;;
3779;SDS011;1905;52.482;9.802;2023-02-21T15:24:58;21.87;;;11.87;;
3779;SDS011;1905;52.482;9.802;2023-02-21T15:27:57;21.33;;;10.80;;
3779;SDS011;1905;52.482;9.802;2023-02-21T15:30:31;37.60;;;15.50;;
3779;SDS011;1905;52.482;9.802;2023-02-21T15:33:04;24.70;;;13.17;;
3779;SDS011;1905;52.482;9.802;2023-02-21T15:35:35;17.77;;;9.13;;
3779;SDS011;1905;52.482;9.802;2023-02-21T15:38:06;25.20;;;13.50;;
3779;SDS011;1905;52.482;9.802;2023-02-21T15:40:41;20.13;;;11.40;;
3779;SDS011;1905;52.482;9.802;2023-02-21T15:43:10;24.00;;;10.83;;
3779;SDS011;1905;52.482;9.802;2023-02-21T15:45:49;25.40;;;11.40;;
3779;SDS011;1905;52.482;9.802;2023-02-21T15:48:20;27.13;;;12.90;;
3779;SDS011;1905;52.482;9.802;2023-02-21T15:50:48;22.33;;;11.70;;
3779;SDS011;1905;52.482;9.802;2023-02-21T15:53:17;19.33;;;10.20;;
3779;SDS011;1905;52.482;9.802;2023-02-21T15:55:48;22.30;;;12.23;;